Time;durP1;ratioP1;P1;durP2;ratioP2;P2;SDS_P1;SDS_P2;PMS_P1;PMS_P2;Temp;Humidity;BMP_temperature;BMP_pressure;BME280_temperature;BME280_humidity;BME280_pressure;Samples;Min_cycle;Max_cycle;Signal;HPM_P1;HPM_P2
2022/12/20 00:00:31;;;;;;;8.35;4.55;;;16.60;44.70;;;;;;5064603;28;45348;-76
2022/12/20 00:02:58;;;;;;;6.68;4.95;;;16.70;44.60;;;;;;5064465;28;45366;-74
2022/12/20 00:05:24;;;;;;;5.10;4.60;;;16.70;44.50;;;;;;5062000;28;45189;-76
2022/12/20 00:07:51;;;;;;;6.63;4.60;;;16.70;44.40;;;;;;5064408;28;45684;-76
2022/12/20 00:10:19;;;;;;;6.43;4.15;;;16.70;44.40;;;;;;5063595;27;45209;-76
2022/12/20 00:12:46;;;;;;;5.28;4.25;;;16.70;44.40;;;;;;5061900;28;45338;-76
2022/12/20 00:15:13;;;;;;;6.60;4.53;;;16.70;44.40;;;;;;5064501;28;45362;-76
2022/12/20 00:17:41;;;;;;;5.20;4.47;;;16.70;44.40;;;;;;5063831;28;45165;-76
2022/12/20 00:20:10;;;;;;;6.53;5.07;;;16.70;45.00;;;;;;5064245;28;45321;-76
2022/12/20 00:22:37;;;;;;;5.60;4.53;;;16.70;44.40;;;;;;5064764;28;45331;-77
2022/12/20 00:25:04;;;;;;;5.60;4.20;;;16.70;44.50;;;;;;5064467;28;45369;-76
2022/12/20 00:27:31;;;;;;;5.82;4.20;;;16.70;44.40;;;;;;5063653;28;45194;-76
2022/12/20 00:29:58;;;;;;;4.90;3.75;;;16.60;44.50;;;;;;5063826;28;45190;-76
2022/12/20 00:32:27;;;;;;;4.75;4.13;;;16.60;44.50;;;;;;5064105;28;45306;-76
2022/12/20 00:34:55;;;;;;;7.90;4.28;;;16.60;44.50;;;;;;5061575;28;45422;-76
2022/12/20 00:37:22;;;;;;;5.80;4.43;;;16.60;44.60;;;;;;5063661;28;47299;-76
2022/12/20 00:39:49;;;;;;;6.43;3.95;;;16.60;44.60;;;;;;5061255;28;45284;-76
2022/12/20 00:42:16;;;;;;;5.07;4.20;;;16.60;44.60;;;;;;5063889;28;45291;-76
2022/12/20 00:44:43;;;;;;;5.45;4.22;;;16.60;44.70;;;;;;5061529;28;45469;-76
2022/12/20 00:47:10;;;;;;;5.30;3.70;;;16.50;44.60;;;;;;5063546;28;46988;-76
2022/12/20 00:49:37;;;;;;;4.72;3.60;;;16.50;44.60;;;;;;5064172;28;45220;-76
2022/12/20 00:52:05;;;;;;;4.70;3.80;;;16.50;44.60;;;;;;5063828;27;45141;-76
2022/12/20 00:54:32;;;;;;;5.68;4.20;;;16.50;44.70;;;;;;5063136;28;45295;-76
2022/12/20 00:56:59;;;;;;;6.47;3.90;;;16.50;44.70;;;;;;5063404;28;45299;-76
2022/12/20 00:59:26;;;;;;;4.38;3.90;;;16.50;44.80;;;;;;5063559;28;45202;-76
2022/12/20 01:01:53;;;;;;;3.97;3.55;;;16.50;44.80;;;;;;5063901;28;45189;-76
2022/12/20 01:04:19;;;;;;;5.15;4.45;;;16.50;44.90;;;;;;5066897;28;45229;-76
2022/12/20 01:06:46;;;;;;;4.50;4.10;;;16.40;44.80;;;;;;5066491;28;46506;-76
2022/12/20 01:09:15;;;;;;;4.28;3.72;;;16.40;44.90;;;;;;5066431;27;45330;-76
2022/12/20 01:11:41;;;;;;;4.68;4.25;;;16.40;44.90;;;;;;5066582;28;45185;-76
2022/12/20 01:14:11;;;;;;;4.22;3.60;;;16.40;44.90;;;;;;5064129;28;45243;-76
2022/12/20 01:16:38;;;;;;;4.95;4.03;;;16.40;45.00;;;;;;5066215;27;45429;-76
2022/12/20 01:19:05;;;;;;;5.50;4.13;;;16.40;45.10;;;;;;5066296;27;45266;-76
2022/12/20 01:21:32;;;;;;;4.20;3.80;;;16.40;45.70;;;;;;5066495;28;45260;-76
2022/12/20 01:23:59;;;;;;;5.43;4.20;;;16.40;45.10;;;;;;5066578;28;45190;-75
2022/12/20 01:26:29;;;;;;;4.47;3.78;;;16.40;45.20;;;;;;5065867;28;45550;-76
2022/12/20 01:28:56;;;;;;;4.10;3.70;;;16.30;45.20;;;;;;5066180;28;45190;-76
2022/12/20 01:31:24;;;;;;;7.10;4.80;;;16.30;45.30;;;;;;5066389;27;45178;-76
2022/12/20 01:33:51;;;;;;;5.85;4.30;;;16.30;45.40;;;;;;5066477;28;45308;-76
2022/12/20 01:36:18;;;;;;;5.95;4.43;;;16.30;45.40;;;;;;5066436;28;45424;-76
2022/12/20 01:38:45;;;;;;;4.72;4.10;;;16.30;45.50;;;;;;5065443;28;45178;-73
2022/12/20 01:41:14;;;;;;;4.32;3.25;;;16.30;45.60;;;;;;5063028;28;45166;-76
2022/12/20 01:43:48;;;;;;;4.70;3.83;;;16.30;45.50;;;;;;5066415;28;45492;-76
2022/12/20 01:46:15;;;;;;;5.88;4.25;;;16.30;45.60;;;;;;5065996;28;46323;-76
2022/12/20 01:48:42;;;;;;;4.60;4.13;;;16.30;45.60;;;;;;5065934;28;45300;-76
2022/12/20 01:51:09;;;;;;;4.18;3.75;;;16.20;45.60;;;;;;5066116;27;45369;-76
2022/12/20 01:53:35;;;;;;;4.32;3.92;;;16.20;45.60;;;;;;5066028;28;45190;-76
2022/12/20 01:56:03;;;;;;;5.35;4.10;;;16.20;45.60;;;;;;5065878;28;45444;-76
2022/12/20 01:58:31;;;;;;;5.13;4.05;;;16.30;45.60;;;;;;5065781;27;45329;-76
2022/12/20 02:00:59;;;;;;;5.82;4.05;;;16.20;45.70;;;;;;5066054;28;45419;-76
2022/12/20 02:03:26;;;;;;;4.72;3.65;;;16.20;45.80;;;;;;5066125;27;45196;-76
2022/12/20 02:05:53;;;;;;;5.13;3.83;;;16.20;45.80;;;;;;5063165;28;46262;-76
2022/12/20 02:08:20;;;;;;;4.95;4.22;;;16.20;45.70;;;;;;5065787;28;45247;-76
2022/12/20 02:10:55;;;;;;;5.68;3.83;;;16.20;45.80;;;;;;5065919;28;45444;-76
2022/12/20 02:13:26;;;;;;;4.03;3.63;;;16.20;45.90;;;;;;5065188;27;45313;-76
2022/12/20 02:15:55;;;;;;;4.47;3.97;;;16.20;45.90;;;;;;5065162;28;46644;-76
2022/12/20 02:18:25;;;;;;;5.25;3.85;;;16.20;46.50;;;;;;5062992;28;45372;-76
2022/12/20 02:21:17;;;;;;;4.63;3.47;;;16.20;46.00;;;;;;5065905;27;45252;-76
2022/12/20 02:23:54;;;;;;;4.30;3.55;;;16.10;45.90;;;;;;5065930;28;45337;-76
2022/12/20 02:26:41;;;;;;;4.32;3.65;;;16.10;46.10;;;;;;5065839;27;47337;-75
2022/12/20 02:29:16;;;;;;;5.90;3.83;;;16.10;46.00;;;;;;5065304;28;45217;-75
2022/12/20 02:31:48;;;;;;;5.07;3.95;;;16.10;46.00;;;;;;5065991;28;45232;-76
2022/12/20 02:34:15;;;;;;;4.88;4.25;;;16.10;46.10;;;;;;5065621;27;45231;-75
2022/12/20 02:36:42;;;;;;;4.82;3.60;;;16.10;46.10;;;;;;5065186;28;45485;-75
2022/12/20 02:39:09;;;;;;;5.32;4.18;;;16.10;46.20;;;;;;5065319;28;45274;-75
2022/12/20 02:41:37;;;;;;;4.75;4.00;;;16.10;46.20;;;;;;5065341;28;45214;-75
2022/12/20 02:46:51;;;;;;;4.82;3.85;;;16.20;46.10;;;;;;5065501;28;45321;-75
2022/12/20 02:49:19;;;;;;;3.67;3.30;;;16.30;45.80;;;;;;5065403;28;45213;-75
2022/12/20 02:51:47;;;;;;;6.28;4.10;;;16.40;45.50;;;;;;5065323;28;45213;-75
2022/12/20 02:54:14;;;;;;;5.30;3.50;;;16.50;45.40;;;;;;5064851;27;45301;-74
2022/12/20 02:56:42;;;;;;;4.00;3.63;;;16.60;45.10;;;;;;5064579;28;45480;-75
2022/12/20 02:59:11;;;;;;;3.70;3.40;;;16.60;44.90;;;;;;5064942;28;45186;-75
2022/12/20 03:01:41;;;;;;;4.10;3.70;;;16.70;44.80;;;;;;5065279;27;45332;-75
2022/12/20 03:04:09;;;;;;;3.40;2.90;;;16.70;44.70;;;;;;5065387;27;45249;-75
2022/12/20 03:06:36;;;;;;;5.10;3.78;;;16.80;44.60;;;;;;5065371;28;45295;-76
2022/12/20 03:09:03;;;;;;;4.18;3.25;;;16.80;44.60;;;;;;5064807;28;45351;-76
2022/12/20 03:11:30;;;;;;;5.82;3.65;;;16.80;44.60;;;;;;5062529;28;45272;-76
2022/12/20 03:13:57;;;;;;;3.60;3.30;;;16.80;44.60;;;;;;5065209;28;45261;-76
2022/12/20 03:16:24;;;;;;;4.03;3.63;;;16.80;44.60;;;;;;5064804;28;45190;-76
2022/12/20 03:18:50;;;;;;;4.72;3.70;;;16.80;44.60;;;;;;5064709;27;45277;-76
2022/12/20 03:21:19;;;;;;;4.10;3.60;;;16.80;44.60;;;;;;5065101;28;45297;-76
2022/12/20 03:23:45;;;;;;;4.65;3.47;;;16.80;44.50;;;;;;5064980;28;45449;-76
2022/12/20 03:26:12;;;;;;;3.58;3.17;;;16.80;44.60;;;;;;5064014;28;45459;-76
2022/12/20 03:28:39;;;;;;;4.38;3.47;;;16.80;45.20;;;;;;5064678;28;45305;-76
2022/12/20 03:31:06;;;;;;;4.47;3.33;;;16.80;44.60;;;;;;5064927;27;45210;-76
2022/12/20 03:33:33;;;;;;;5.00;3.67;;;16.80;44.70;;;;;;5065066;28;45306;-77
2022/12/20 03:36:00;;;;;;;3.70;3.17;;;16.80;44.70;;;;;;5064632;28;45453;-76
2022/12/20 03:38:28;;;;;;;3.67;3.08;;;16.80;44.70;;;;;;5064570;28;45293;-76
2022/12/20 03:40:55;;;;;;;3.80;3.20;;;16.80;44.70;;;;;;5063932;28;45242;-76
2022/12/20 03:43:22;;;;;;;3.67;3.22;;;16.70;44.70;;;;;;5064866;28;45179;-76
2022/12/20 03:45:49;;;;;;;4.05;3.38;;;16.70;44.80;;;;;;5064435;28;45387;-76
2022/12/20 03:48:15;;;;;;;3.75;2.97;;;16.70;44.80;;;;;;5064239;28;45305;-76
2022/12/20 03:50:42;;;;;;;4.00;3.38;;;16.70;44.80;;;;;;5064616;28;45200;-76
2022/12/20 03:53:09;;;;;;;3.55;3.22;;;16.70;44.90;;;;;;5064764;28;45182;-76
2022/12/20 03:55:37;;;;;;;3.30;3.00;;;16.70;44.90;;;;;;5064468;28;45356;-76
2022/12/20 03:58:04;;;;;;;3.20;2.90;;;16.70;44.90;;;;;;5064241;28;45339;-76
2022/12/20 04:00:31;;;;;;;3.40;3.00;;;16.60;44.90;;;;;;5064519;27;45329;-76
2022/12/20 04:02:58;;;;;;;3.92;2.90;;;16.60;44.90;;;;;;5064548;27;45462;-76
2022/12/20 04:05:25;;;;;;;3.60;3.30;;;16.60;44.90;;;;;;5064234;28;45749;-76
2022/12/20 04:07:52;;;;;;;3.05;2.75;;;16.60;45.00;;;;;;5064138;28;45248;-76
2022/12/20 04:10:18;;;;;;;3.78;2.90;;;16.60;45.00;;;;;;5064313;28;45292;-76
2022/12/20 04:12:47;;;;;;;3.33;2.60;;;16.60;45.00;;;;;;5061794;28;45318;-76
2022/12/20 04:15:14;;;;;;;3.42;3.10;;;16.60;45.10;;;;;;5064079;28;46644;-76
2022/12/20 04:17:40;;;;;;;3.00;2.70;;;16.60;45.10;;;;;;5064330;28;45261;-76
2022/12/20 04:20:18;;;;;;;4.32;2.78;;;16.60;45.20;;;;;;5063989;27;45224;-76
2022/12/20 04:22:45;;;;;;;3.08;2.53;;;16.50;45.20;;;;;;5064426;28;45263;-76
2022/12/20 04:25:12;;;;;;;3.15;2.80;;;16.50;45.10;;;;;;5063780;28;45404;-74
2022/12/20 04:27:39;;;;;;;4.50;2.88;;;16.50;45.20;;;;;;5063077;28;45168;-76
2022/12/20 04:30:10;;;;;;;2.78;2.58;;;16.50;45.30;;;;;;5064117;28;45252;-76
2022/12/20 04:32:36;;;;;;;3.47;2.70;;;16.50;45.30;;;;;;5064085;28;45301;-76
2022/12/20 04:35:04;;;;;;;2.67;2.40;;;16.50;45.30;;;;;;5061145;28;45271;-76
2022/12/20 04:37:31;;;;;;;3.15;2.58;;;16.50;45.40;;;;;;5060122;28;45304;-76
2022/12/20 04:39:58;;;;;;;3.50;2.65;;;16.50;45.40;;;;;;5064056;28;45236;-76
2022/12/20 04:42:25;;;;;;;2.78;2.45;;;16.50;45.50;;;;;;5064098;28;45278;-76
2022/12/20 04:44:52;;;;;;;3.28;2.70;;;16.50;45.90;;;;;;5061159;28;46584;-76
2022/12/20 04:47:20;;;;;;;3.42;2.50;;;16.40;45.50;;;;;;5063692;27;45180;-76
2022/12/20 04:49:47;;;;;;;3.55;2.80;;;16.40;45.60;;;;;;5063976;28;45216;-76
2022/12/20 04:54:58;;;;;;;2.53;2.28;;;16.40;45.70;;;;;;5063905;28;45215;-76
2022/12/20 04:57:25;;;;;;;2.50;2.30;;;16.40;45.70;;;;;;5063755;28;45395;-76
2022/12/20 04:59:52;;;;;;;2.80;2.30;;;16.40;45.80;;;;;;5063594;28;45359;-76
2022/12/20 05:02:20;;;;;;;3.25;2.63;;;16.40;45.80;;;;;;5063827;28;45213;-76
2022/12/20 05:04:47;;;;;;;2.25;2.05;;;16.40;45.80;;;;;;5063409;28;45234;-76
2022/12/20 05:07:14;;;;;;;3.15;2.60;;;16.40;45.90;;;;;;5063378;28;45316;-76
2022/12/20 05:09:41;;;;;;;2.50;2.30;;;16.40;45.90;;;;;;5063573;28;45212;-76
2022/12/20 05:12:08;;;;;;;2.80;2.30;;;16.40;45.90;;;;;;5063656;28;45341;-76
2022/12/20 05:14:35;;;;;;;2.53;2.33;;;16.30;46.50;;;;;;5062871;28;45459;-76
2022/12/20 05:17:02;;;;;;;2.58;2.38;;;16.30;46.00;;;;;;5059861;28;45190;-76
2022/12/20 05:19:30;;;;;;;2.90;2.60;;;16.30;46.00;;;;;;5063220;28;45281;-76
2022/12/20 05:27:25;;;;;;;3.00;2.03;;;16.30;46.20;;;;;;5062178;28;45325;-75
2022/12/20 05:29:52;;;;;;;3.08;2.33;;;16.30;46.20;;;;;;5063138;28;45289;-76
2022/12/20 05:32:19;;;;;;;2.85;2.15;;;16.30;46.20;;;;;;5063310;27;45262;-76
2022/12/20 05:34:47;;;;;;;2.30;2.10;;;16.30;46.20;;;;;;5062972;27;46755;-76
2022/12/20 05:37:14;;;;;;;2.33;2.13;;;16.30;46.20;;;;;;5062954;28;45310;-76
2022/12/20 05:39:41;;;;;;;2.10;1.90;;;16.30;46.30;;;;;;5063040;28;45347;-76
2022/12/20 05:42:08;;;;;;;2.63;1.98;;;16.30;46.20;;;;;;5063236;28;45473;-76
2022/12/20 05:44:35;;;;;;;2.15;1.83;;;16.30;46.30;;;;;;5062780;28;47824;-76
2022/12/20 05:47:01;;;;;;;2.70;1.98;;;16.30;46.30;;;;;;5062668;28;45167;-76
2022/12/20 05:49:28;;;;;;;2.53;2.13;;;16.30;46.30;;;;;;5065350;28;45257;-76
2022/12/20 05:51:56;;;;;;;2.50;2.30;;;16.30;46.40;;;;;;5066521;28;45493;-76
2022/12/20 05:54:24;;;;;;;2.45;2.25;;;16.20;46.40;;;;;;5065974;27;45410;-76
2022/12/20 05:56:51;;;;;;;2.05;1.85;;;16.20;46.50;;;;;;5066152;28;45140;-76
2022/12/20 05:59:17;;;;;;;2.20;2.00;;;16.20;46.50;;;;;;5065949;28;45238;-76
2022/12/20 06:01:44;;;;;;;2.30;2.10;;;16.20;46.50;;;;;;5066217;27;44798;-76
2022/12/20 06:04:11;;;;;;;2.42;2.10;;;16.20;46.60;;;;;;5065981;28;46379;-76
2022/12/20 06:06:38;;;;;;;2.00;1.90;;;16.20;47.20;;;;;;5063144;28;45362;-76
2022/12/20 06:09:06;;;;;;;3.17;1.90;;;16.20;46.60;;;;;;5065167;28;45175;-76
2022/12/20 06:11:33;;;;;;;2.33;2.10;;;16.20;46.60;;;;;;5066154;28;45496;-76
2022/12/20 06:14:00;;;;;;;4.05;2.25;;;16.20;46.70;;;;;;5065980;28;46384;-76
2022/12/20 06:16:27;;;;;;;2.17;1.98;;;16.20;46.70;;;;;;5065624;28;45414;-76
2022/12/20 06:18:54;;;;;;;2.13;1.95;;;16.20;46.70;;;;;;5065756;28;45292;-76
2022/12/20 06:21:21;;;;;;;2.30;2.10;;;16.20;46.70;;;;;;5065687;27;45526;-76
2022/12/20 06:23:48;;;;;;;1.92;1.77;;;16.20;46.70;;;;;;5065563;27;45470;-76
2022/12/20 06:26:17;;;;;;;2.10;1.90;;;16.20;46.70;;;;;;5065280;28;45353;-76
2022/12/20 06:28:44;;;;;;;2.20;2.00;;;16.20;46.80;;;;;;5065980;28;45259;-76
2022/12/20 06:31:11;;;;;;;1.90;1.80;;;16.20;46.70;;;;;;5065733;28;45185;-76
2022/12/20 06:33:38;;;;;;;1.70;1.60;;;16.20;46.70;;;;;;5065312;28;45402;-76
2022/12/20 06:36:06;;;;;;;2.55;1.90;;;16.20;46.80;;;;;;5065537;28;45432;-76
2022/12/20 06:38:33;;;;;;;2.13;1.92;;;16.20;46.80;;;;;;5062858;28;45369;-76
2022/12/20 06:41:00;;;;;;;2.10;1.90;;;16.20;46.80;;;;;;5065964;28;45260;-75
2022/12/20 06:43:28;;;;;;;2.17;1.98;;;16.20;46.80;;;;;;5065222;27;47322;-75
2022/12/20 06:45:55;;;;;;;2.67;2.05;;;16.20;46.80;;;;;;5065424;28;45376;-76
2022/12/20 06:48:22;;;;;;;1.90;1.80;;;16.20;46.80;;;;;;5065493;28;45268;-76
2022/12/20 06:50:49;;;;;;;2.42;2.22;;;16.20;46.70;;;;;;5065612;28;45369;-76
2022/12/20 06:53:15;;;;;;;2.60;2.17;;;16.20;46.70;;;;;;5064315;28;46642;-76
2022/12/20 06:55:42;;;;;;;2.20;2.00;;;16.20;46.80;;;;;;5065239;28;45271;-76
2022/12/20 06:58:09;;;;;;;2.53;2.25;;;16.20;46.90;;;;;;5062544;28;45538;-76
2022/12/20 07:00:37;;;;;;;1.90;1.80;;;16.30;46.80;;;;;;5064465;28;45313;-76
2022/12/20 07:03:04;;;;;;;2.45;2.25;;;16.30;46.50;;;;;;5065051;27;45443;-76
2022/12/20 07:05:31;;;;;;;2.10;1.90;;;16.40;46.30;;;;;;5065220;28;45193;-76
2022/12/20 07:07:58;;;;;;;2.30;2.10;;;16.50;46.00;;;;;;5065183;28;45210;-76
2022/12/20 07:10:25;;;;;;;2.42;2.15;;;16.60;45.70;;;;;;5065260;28;45250;-76
2022/12/20 07:12:52;;;;;;;3.65;2.10;;;16.70;45.50;;;;;;5064811;28;46753;-76
2022/12/20 07:15:20;;;;;;;1.95;1.85;;;16.80;45.90;;;;;;5065039;28;45161;-76
2022/12/20 07:17:50;;;;;;;2.40;2.00;;;16.90;45.20;;;;;;5065116;28;45154;-76
2022/12/20 07:20:17;;;;;;;2.85;2.55;;;16.90;45.10;;;;;;5065124;28;45301;-77
2022/12/20 07:22:44;;;;;;;2.30;2.10;;;16.90;45.00;;;;;;5064743;28;46658;-76
2022/12/20 07:25:11;;;;;;;2.95;2.63;;;17.00;45.00;;;;;;5065175;28;45198;-75
2022/12/20 07:27:38;;;;;;;4.03;2.40;;;17.00;45.00;;;;;;5064750;28;45270;-76
2022/12/20 07:30:06;;;;;;;2.90;2.50;;;17.00;45.00;;;;;;5065111;27;45417;-76
2022/12/20 07:32:32;;;;;;;2.97;2.47;;;17.00;44.90;;;;;;5064847;28;45594;-75
2022/12/20 07:35:01;;;;;;;3.58;2.30;;;17.00;44.90;;;;;;5064421;27;45244;-75
2022/12/20 07:37:28;;;;;;;2.72;2.42;;;17.00;44.90;;;;;;5061434;28;45272;-75
2022/12/20 07:39:55;;;;;;;2.60;2.38;;;17.00;44.80;;;;;;5064717;28;45402;-76
2022/12/20 07:42:22;;;;;;;4.22;2.40;;;17.00;45.40;;;;;;5064575;28;45440;-75
2022/12/20 07:44:49;;;;;;;3.78;2.42;;;17.00;44.90;;;;;;5064376;28;45309;-75
2022/12/20 07:47:16;;;;;;;3.60;2.40;;;17.00;44.90;;;;;;5062069;28;45182;-76
2022/12/20 07:49:43;;;;;;;4.93;2.55;;;17.00;44.90;;;;;;5064905;28;45237;-76
2022/12/20 07:52:11;;;;;;;6.38;2.75;;;17.00;45.00;;;;;;5064389;27;45477;-76
2022/12/20 07:54:40;;;;;;;9.43;2.97;;;17.00;44.90;;;;;;5064398;28;45401;-76
2022/12/20 07:57:11;;;;;;;6.22;3.17;;;17.00;45.00;;;;;;5064634;28;45230;-76
2022/12/20 07:59:39;;;;;;;4.78;3.00;;;17.00;45.00;;;;;;5064498;28;45386;-76
2022/12/20 08:02:06;;;;;;;3.22;2.78;;;17.00;45.10;;;;;;5064323;27;45202;-76
2022/12/20 08:04:33;;;;;;;5.82;3.40;;;17.00;45.10;;;;;;5064193;27;45270;-76
2022/12/20 08:07:00;;;;;;;5.75;3.10;;;16.90;45.10;;;;;;5064485;28;45311;-76
2022/12/20 08:09:29;;;;;;;3.88;2.95;;;16.90;45.10;;;;;;5064407;28;45267;-76
2022/12/20 08:11:56;;;;;;;5.57;2.85;;;16.90;45.10;;;;;;5063120;28;45175;-76
2022/12/20 08:14:23;;;;;;;4.50;3.03;;;16.90;45.10;;;;;;5064284;28;45265;-76
2022/12/20 08:16:50;;;;;;;7.72;3.33;;;16.90;45.20;;;;;;5064183;28;45389;-76
2022/12/20 08:19:17;;;;;;;6.28;3.00;;;16.90;45.20;;;;;;5064346;28;45430;-77
2022/12/20 08:21:43;;;;;;;3.75;3.17;;;16.90;45.30;;;;;;5060818;28;45376;-76
2022/12/20 08:24:10;;;;;;;6.57;3.38;;;16.90;45.60;;;;;;5063929;28;45260;-76
2022/12/20 08:26:39;;;;;;;5.32;3.33;;;16.90;45.40;;;;;;5064150;28;45286;-76
2022/12/20 08:29:06;;;;;;;8.00;3.88;;;16.90;45.40;;;;;;5064265;27;45280;-77
2022/12/20 08:31:33;;;;;;;3.67;3.28;;;16.80;45.40;;;;;;5064030;28;45795;-76
2022/12/20 08:34:00;;;;;;;5.93;3.30;;;16.80;45.40;;;;;;5064177;28;45354;-76
2022/12/20 08:36:27;;;;;;;7.45;3.45;;;16.80;45.40;;;;;;5064238;28;45190;-76
2022/12/20 08:38:54;;;;;;;5.78;3.78;;;16.80;45.40;;;;;;5063954;27;45579;-76
2022/12/20 08:41:21;;;;;;;5.22;3.58;;;16.80;45.40;;;;;;5063942;28;45460;-76
2022/12/20 08:43:49;;;;;;;3.90;3.50;;;16.80;46.00;;;;;;5063978;27;45236;-76
2022/12/20 08:46:16;;;;;;;5.95;3.83;;;16.80;45.50;;;;;;5063799;27;45190;-76
2022/12/20 08:48:43;;;;;;;5.38;3.85;;;16.80;45.50;;;;;;5063972;28;45425;-76
2022/12/20 08:51:10;;;;;;;4.60;3.78;;;16.80;45.50;;;;;;5063687;27;45216;-76
2022/12/20 08:53:37;;;;;;;4.57;3.42;;;16.80;45.50;;;;;;5063439;27;45333;-76
2022/12/20 08:56:05;;;;;;;5.90;3.80;;;16.80;45.60;;;;;;5063624;27;45384;-76
2022/12/20 08:58:32;;;;;;;4.95;3.70;;;16.80;45.60;;;;;;5063950;27;45121;-76
2022/12/20 09:01:00;;;;;;;5.68;3.80;;;16.80;45.60;;;;;;5063437;28;45266;-76
2022/12/20 09:03:29;;;;;;;4.05;3.47;;;16.80;45.60;;;;;;5063438;28;46254;-75
2022/12/20 09:05:55;;;;;;;5.65;3.78;;;16.80;45.60;;;;;;5060234;28;45285;-76
2022/12/20 09:08:22;;;;;;;5.47;3.30;;;16.80;45.60;;;;;;5063593;28;45453;-76
2022/12/20 09:10:49;;;;;;;5.50;3.85;;;16.80;45.50;;;;;;5063466;28;45396;-76
2022/12/20 09:13:16;;;;;;;6.32;3.33;;;16.80;45.70;;;;;;5063278;28;45351;-76
2022/12/20 09:15:44;;;;;;;6.20;3.97;;;16.80;45.60;;;;;;5063488;28;45256;-76
2022/12/20 09:18:12;;;;;;;4.38;3.60;;;16.80;45.70;;;;;;5063619;28;45315;-76
2022/12/20 09:20:43;;;;;;;4.80;3.83;;;16.80;45.70;;;;;;5062883;28;46654;-76
2022/12/20 09:23:10;;;;;;;7.20;4.40;;;16.80;45.80;;;;;;5063594;28;45422;-76
2022/12/20 09:25:37;;;;;;;4.40;4.00;;;16.80;45.80;;;;;;5066160;28;45184;-76
2022/12/20 09:28:04;;;;;;;7.50;3.80;;;16.80;45.80;;;;;;5066754;28;45199;-76
2022/12/20 09:30:32;;;;;;;4.75;3.90;;;16.80;45.90;;;;;;5066716;27;47828;-76
2022/12/20 09:32:58;;;;;;;5.85;4.00;;;16.80;46.40;;;;;;5066276;27;45226;-76
2022/12/20 09:35:27;;;;;;;9.48;4.57;;;16.80;45.80;;;;;;5066232;28;45341;-76
2022/12/20 09:37:53;;;;;;;4.90;4.00;;;16.80;45.90;;;;;;5066625;27;45414;-76
2022/12/20 09:40:22;;;;;;;6.47;4.55;;;16.80;45.80;;;;;;5065997;28;45197;-75
2022/12/20 09:42:49;;;;;;;6.00;4.30;;;16.80;45.90;;;;;;5066104;28;45269;-76
2022/12/20 09:45:21;;;;;;;6.90;4.20;;;16.80;45.90;;;;;;5066328;28;45293;-76
2022/12/20 09:47:48;;;;;;;5.88;4.32;;;16.80;46.00;;;;;;5066239;28;45394;-75
2022/12/20 09:50:15;;;;;;;4.68;4.05;;;16.80;46.00;;;;;;5066082;28;45422;-75
2022/12/20 09:52:54;;;;;;;5.95;4.25;;;16.80;46.20;;;;;;5065292;28;46054;-76
2022/12/20 09:55:25;;;;;;;6.63;4.55;;;16.80;46.80;;;;;;5065685;28;45216;-75
2022/12/20 09:57:58;;;;;;;5.10;3.95;;;16.80;46.20;;;;;;5065616;27;45391;-75
2022/12/20 10:00:25;;;;;;;8.38;4.90;;;16.80;46.20;;;;;;5065219;27;45796;-75
2022/12/20 10:02:52;;;;;;;8.77;4.78;;;16.80;46.40;;;;;;5066104;27;45182;-75
2022/12/20 10:05:22;;;;;;;8.40;4.75;;;16.80;46.50;;;;;;5066003;28;45245;-75
2022/12/20 10:07:54;;;;;;;7.78;4.90;;;16.70;46.50;;;;;;5066010;28;45350;-76
2022/12/20 10:10:42;;;;;;;6.00;4.55;;;16.70;46.40;;;;;;5065791;27;45300;-75
2022/12/20 10:13:16;;;;;;;6.45;4.68;;;16.80;46.50;;;;;;5065842;28;45309;-75
2022/12/20 10:15:46;;;;;;;5.75;4.85;;;16.80;46.60;;;;;;5065856;27;45392;-76
2022/12/20 10:18:33;;;;;;;7.05;4.63;;;16.80;46.60;;;;;;5066373;27;45422;-75
2022/12/20 10:21:02;;;;;;;6.28;4.85;;;16.80;46.60;;;;;;5065912;27;46777;-75
2022/12/20 10:23:33;;;;;;;7.68;4.70;;;16.80;46.70;;;;;;5065878;28;45315;-75
2022/12/20 10:26:00;;;;;;;6.70;4.60;;;16.80;46.60;;;;;;5065484;28;45223;-76
2022/12/20 10:28:28;;;;;;;5.93;4.78;;;16.80;46.70;;;;;;5066054;28;45293;-75
2022/12/20 10:30:59;;;;;;;6.63;4.90;;;16.80;46.70;;;;;;5065705;28;47712;-75
2022/12/20 10:33:26;;;;;;;6.93;5.13;;;16.80;46.70;;;;;;5062906;28;45270;-75
2022/12/20 10:35:53;;;;;;;5.32;4.57;;;16.80;47.40;;;;;;5063024;28;45349;-75
2022/12/20 10:38:21;;;;;;;5.70;5.10;;;16.80;46.70;;;;;;5065948;28;45355;-75
2022/12/20 10:40:59;;;;;;;7.55;5.25;;;16.70;46.80;;;;;;5065220;28;45480;-75
2022/12/20 10:43:26;;;;;;;6.60;5.07;;;16.80;46.80;;;;;;5065259;28;46323;-75
2022/12/20 10:45:57;;;;;;;7.50;4.93;;;16.80;46.90;;;;;;5065519;28;45250;-75
2022/12/20 10:48:28;;;;;;;5.95;5.10;;;16.80;46.80;;;;;;5065955;28;45159;-75
2022/12/20 10:50:57;;;;;;;6.38;5.32;;;16.80;46.80;;;;;;5065248;28;45641;-76
2022/12/20 10:53:24;;;;;;;8.15;5.05;;;16.80;46.80;;;;;;5065167;27;45179;-75
2022/12/20 10:55:52;;;;;;;7.63;5.22;;;16.80;46.80;;;;;;5065505;27;45194;-75
2022/12/20 10:58:29;;;;;;;5.90;4.80;;;16.80;46.80;;;;;;5065554;27;45572;-75
2022/12/20 11:01:04;;;;;;;7.38;4.80;;;16.90;46.70;;;;;;5064983;28;46614;-74
2022/12/20 11:03:31;;;;;;;5.93;4.93;;;17.00;46.50;;;;;;5065247;27;45244;-75
2022/12/20 11:05:59;;;;;;;7.07;5.30;;;17.10;46.50;;;;;;5065445;28;45120;-75
2022/12/20 11:08:26;;;;;;;5.95;5.13;;;17.20;46.30;;;;;;5065576;27;45229;-75
2022/12/20 11:11:11;;;;;;;6.93;5.18;;;17.20;46.30;;;;;;5065019;28;45791;-74
2022/12/20 11:13:38;;;;;;;6.85;5.20;;;17.20;46.10;;;;;;5065115;28;45368;-76
2022/12/20 11:16:05;;;;;;;8.02;5.05;;;17.20;46.30;;;;;;5065544;28;45277;-75
2022/12/20 11:18:39;;;;;;;5.82;4.53;;;17.20;46.30;;;;;;5064885;27;45410;-75
2022/12/20 11:21:14;;;;;;;7.10;5.28;;;17.20;46.40;;;;;;5063930;27;45521;-75
2022/12/20 11:23:43;;;;;;;6.88;4.90;;;17.20;46.50;;;;;;5064208;27;45286;-75
2022/12/20 11:26:21;;;;;;;7.57;4.88;;;17.20;46.50;;;;;;5065030;28;45277;-75
2022/12/20 11:28:56;;;;;;;6.15;5.03;;;17.10;46.60;;;;;;5065264;27;45413;-75
2022/12/20 11:31:26;;;;;;;6.78;5.22;;;17.10;46.60;;;;;;5064612;28;46617;-75
2022/12/20 11:34:00;;;;;;;7.38;5.50;;;17.10;46.60;;;;;;5065309;27;45267;-75
2022/12/20 11:36:31;;;;;;;8.00;5.15;;;17.10;46.80;;;;;;5064985;28;45392;-75
2022/12/20 11:39:00;;;;;;;8.15;5.70;;;17.10;47.50;;;;;;5065451;28;45444;-75
2022/12/20 11:41:30;;;;;;;7.90;5.78;;;17.10;46.90;;;;;;5064393;28;46642;-75
2022/12/20 11:44:06;;;;;;;7.07;5.70;;;17.10;46.90;;;;;;5064701;27;45258;-76
2022/12/20 11:46:45;;;;;;;6.65;5.95;;;17.10;46.90;;;;;;5064427;28;45367;-75
2022/12/20 11:49:28;;;;;;;6.60;5.65;;;17.10;46.90;;;;;;5065327;28;45351;-76
2022/12/20 11:51:59;;;;;;;7.45;5.88;;;17.10;46.90;;;;;;5064625;27;45515;-76
2022/12/20 11:54:28;;;;;;;8.20;6.25;;;17.10;47.00;;;;;;5064563;28;45241;-76
2022/12/20 11:57:00;;;;;;;7.85;6.13;;;17.10;47.10;;;;;;5064700;28;45343;-77
2022/12/20 11:59:39;;;;;;;7.72;6.63;;;17.10;47.10;;;;;;5064643;28;45232;-76
2022/12/20 12:02:09;;;;;;;8.50;7.10;;;17.20;47.10;;;;;;5064482;28;46601;-76
2022/12/20 12:04:37;;;;;;;10.57;6.35;;;17.20;47.00;;;;;;5064518;28;45275;-77
2022/12/20 12:07:06;;;;;;;8.35;6.18;;;17.30;46.70;;;;;;5064578;27;45290;-76
2022/12/20 12:09:35;;;;;;;8.73;7.13;;;17.30;46.80;;;;;;5064508;28;45396;-76
2022/12/20 12:12:05;;;;;;;8.35;7.40;;;17.40;46.90;;;;;;5064335;27;46356;-76
2022/12/20 12:14:46;;;;;;;9.30;7.43;;;17.40;46.90;;;;;;5063968;28;45294;-76
2022/12/20 12:17:16;;;;;;;9.57;7.43;;;17.50;46.80;;;;;;5064513;27;45262;-76
2022/12/20 12:19:44;;;;;;;9.48;7.10;;;17.70;46.70;;;;;;5064672;27;45466;-76
2022/12/20 12:22:13;;;;;;;8.20;6.85;;;17.70;46.40;;;;;;5063925;28;45473;-76
2022/12/20 12:24:42;;;;;;;11.02;7.85;;;17.80;46.40;;;;;;5064104;27;45414;-77
2022/12/20 12:27:12;;;;;;;9.18;7.40;;;17.80;46.00;;;;;;5063719;27;45283;-77
2022/12/20 12:29:39;;;;;;;11.05;7.60;;;17.80;46.40;;;;;;5064594;28;45307;-76
2022/12/20 12:32:07;;;;;;;10.50;7.50;;;17.80;46.40;;;;;;5063942;28;46619;-77
2022/12/20 12:34:44;;;;;;;12.38;7.63;;;17.70;46.60;;;;;;5063699;27;45197;-77
2022/12/20 12:37:28;;;;;;;10.00;8.15;;;17.70;46.70;;;;;;5064199;28;45228;-77
2022/12/20 12:40:32;;;;;;;9.45;7.50;;;17.70;46.70;;;;;;5061559;28;45193;-77
2022/12/20 12:43:12;;;;;;;9.27;7.75;;;17.70;46.80;;;;;;5063818;27;45307;-77
2022/12/20 12:45:42;;;;;;;9.60;7.22;;;17.70;46.80;;;;;;5063808;28;45341;-77
2022/12/20 12:48:13;;;;;;;8.43;7.57;;;17.70;46.90;;;;;;5063865;27;45268;-77
2022/12/20 12:50:44;;;;;;;10.90;7.45;;;17.70;46.90;;;;;;5064012;28;45269;-77
2022/12/20 12:53:13;;;;;;;9.68;7.75;;;17.70;46.90;;;;;;5063551;27;46940;-77
2022/12/20 12:55:42;;;;;;;9.35;7.70;;;17.70;46.90;;;;;;5063522;28;45351;-77
2022/12/20 12:58:30;;;;;;;9.00;7.53;;;17.70;47.00;;;;;;5064417;27;45187;-77
2022/12/20 13:00:58;;;;;;;10.23;7.55;;;17.70;47.00;;;;;;5066989;28;45389;-77
2022/12/20 13:03:42;;;;;;;9.75;7.15;;;17.70;47.10;;;;;;5066529;27;46400;-77